createdAt,value
2022-09-23T00:01:16.796Z,101600.00
2022-09-23T00:03:47.391Z,101592.31
2022-09-23T00:06:17.478Z,101583.00
2022-09-23T00:08:44.788Z,101583.84
2022-09-23T00:11:17.698Z,101594.13
2022-09-23T00:13:46.724Z,101593.16
2022-09-23T00:16:16.982Z,101586.59
2022-09-23T00:18:44.261Z,101580.22
2022-09-23T00:21:13.559Z,101585.59
2022-09-23T00:23:42.890Z,101582.16
2022-09-23T00:26:12.782Z,101580.69
2022-09-23T00:28:39.573Z,101582.63
2022-09-23T00:31:08.656Z,101566.31
2022-09-23T00:33:35.322Z,101573.81
2022-09-23T00:36:05.700Z,101566.59
2022-09-23T00:38:33.895Z,101565.09
2022-09-23T00:41:00.945Z,101562.16
2022-09-23T00:43:48.935Z,101566.56
2022-09-23T00:46:37.437Z,101568.16
2022-09-23T00:49:10.903Z,101572.22
2022-09-23T00:51:41.372Z,101569.59
2022-09-23T00:54:09.189Z,101570.91
2022-09-23T00:56:38.677Z,101571.06
2022-09-23T00:59:09.655Z,101572.84
2022-09-23T01:01:38.205Z,101569.06
2022-09-23T01:04:07.196Z,101566.59
2022-09-23T01:06:34.355Z,101562.19
2022-09-23T01:09:02.319Z,101565.84
2022-09-23T01:11:40.604Z,101556.69
2022-09-23T01:14:20.247Z,101555.66
2022-09-23T01:16:59.144Z,101550.38
2022-09-23T01:19:36.337Z,101554.22
2022-09-23T01:22:09.167Z,101548.50
2022-09-23T01:24:54.843Z,101557.81
2022-09-23T01:27:34.298Z,101550.94
2022-09-23T01:30:16.664Z,101555.19
2022-09-23T01:32:43.440Z,101553.09
2022-09-23T01:35:22.592Z,101553.94
2022-09-23T01:38:05.128Z,101555.47
2022-09-23T01:40:59.791Z,101545.38
2022-09-23T01:43:39.000Z,101539.19
2022-09-23T01:46:16.495Z,101544.75
2022-09-23T01:48:53.801Z,101545.44
2022-09-23T01:51:40.575Z,101544.47
2022-09-23T01:54:31.006Z,101553.41
2022-09-23T01:57:09.718Z,101552.31
2022-09-23T01:59:41.511Z,101549.72
2022-09-23T02:02:11.583Z,101548.59
2022-09-23T02:05:04.172Z,101554.13
2022-09-23T02:07:42.217Z,101545.28
2022-09-23T02:10:15.350Z,101548.19
2022-09-23T02:12:46.903Z,101537.63
2022-09-23T02:15:24.862Z,101533.38
2022-09-23T02:17:56.186Z,101531.19
2022-09-23T02:20:29.941Z,101524.97
2022-09-23T02:23:03.709Z,101516.28
2022-09-23T02:25:40.335Z,101517.41
2022-09-23T02:28:17.003Z,101517.59
2022-09-23T02:30:52.016Z,101515.97
2022-09-23T02:33:28.850Z,101516.88
2022-09-23T02:36:06.317Z,101511.63
2022-09-23T02:38:50.778Z,101507.81
2022-09-23T02:41:37.188Z,101502.88
2022-09-23T02:44:09.031Z,101505.78
2022-09-23T02:46:37.014Z,101491.88
2022-09-23T02:49:21.920Z,101503.56
2022-09-23T02:51:49.169Z,101487.88
2022-09-23T02:54:22.804Z,101495.38
2022-09-23T02:56:49.807Z,101495.16
2022-09-23T02:59:20.808Z,101483.78
2022-09-23T03:02:09.389Z,101496.09
2022-09-23T03:04:58.554Z,101483.88
2022-09-23T03:07:44.507Z,101491.72
2022-09-23T03:10:22.945Z,101493.75
2022-09-23T03:13:02.022Z,101495.06
2022-09-23T03:15:42.710Z,101487.06
2022-09-23T03:18:31.672Z,101490.19
2022-09-23T03:21:09.934Z,101488.56
2022-09-23T03:23:40.015Z,101489.06
2022-09-23T03:26:14.720Z,101493.16
2022-09-23T03:28:44.868Z,101490.25
2022-09-23T03:31:13.950Z,101489.28
2022-09-23T03:33:45.399Z,101489.13
2022-09-23T03:36:33.596Z,101490.28
2022-09-23T03:39:08.966Z,101490.28
2022-09-23T03:41:42.073Z,101489.69
2022-09-23T03:44:10.974Z,101491.03
2022-09-23T03:46:37.933Z,101480.94
2022-09-23T03:49:16.436Z,101471.00
2022-09-23T03:51:44.753Z,101478.00
2022-09-23T03:54:12.317Z,101460.41
2022-09-23T03:56:39.324Z,101459.09
2022-09-23T03:59:06.163Z,101455.81
2022-09-23T04:01:33.051Z,101459.94
2022-09-23T04:04:00.166Z,101458.94
2022-09-23T04:06:27.114Z,101450.31
2022-09-23T04:08:53.902Z,101459.44
2022-09-23T04:11:20.458Z,101442.50
2022-09-23T04:13:47.213Z,101442.16
2022-09-23T04:16:14.159Z,101450.00
2022-09-23T04:18:40.869Z,101451.47
2022-09-23T04:21:07.487Z,101442.16
2022-09-23T04:23:34.091Z,101442.81
2022-09-23T04:26:00.754Z,101443.34
2022-09-23T04:28:27.656Z,101440.22
2022-09-23T04:30:56.626Z,101431.25
2022-09-23T04:33:24.585Z,101440.41
2022-09-23T04:35:52.412Z,101431.91
2022-09-23T04:38:19.560Z,101435.69
2022-09-23T04:40:46.262Z,101435.00
2022-09-23T04:43:15.784Z,101426.38
2022-09-23T04:45:43.554Z,101433.06
2022-09-23T04:48:11.329Z,101440.91
2022-09-23T04:50:38.367Z,101428.50
2022-09-23T04:53:05.290Z,101430.78
2022-09-23T04:55:32.216Z,101418.22
2022-09-23T04:57:58.992Z,101434.03
2022-09-23T05:00:28.611Z,101430.75
2022-09-23T05:02:55.523Z,101425.38
2022-09-23T05:05:23.665Z,101426.72
2022-09-23T05:07:51.341Z,101431.78
2022-09-23T05:10:18.331Z,101437.16
2022-09-23T05:12:45.630Z,101438.94
2022-09-23T05:15:16.094Z,101432.41
2022-09-23T05:17:43.289Z,101433.06
2022-09-23T05:20:13.704Z,101443.03
2022-09-23T05:22:40.436Z,101437.97
2022-09-23T05:25:07.465Z,101438.13
2022-09-23T05:27:34.423Z,101440.13
2022-09-23T05:30:01.930Z,101437.34
2022-09-23T05:32:28.525Z,101442.06
2022-09-23T05:34:55.753Z,101438.66
2022-09-23T05:37:23.049Z,101455.13
2022-09-23T05:39:53.136Z,101449.75
2022-09-23T05:42:20.945Z,101457.75
2022-09-23T05:44:47.912Z,101458.56
2022-09-23T05:47:14.562Z,101458.22
2022-09-23T05:49:58.528Z,101463.16
2022-09-23T05:52:26.649Z,101455.97
2022-09-23T05:54:53.848Z,101457.75
2022-09-23T05:57:21.412Z,101454.69
2022-09-23T05:59:47.970Z,101455.00
2022-09-23T06:02:15.225Z,101463.66
2022-09-23T06:04:42.706Z,101458.94
2022-09-23T06:07:09.879Z,101453.69
2022-09-23T06:09:37.018Z,101455.97
2022-09-23T06:12:06.272Z,101441.78
2022-09-23T06:14:32.809Z,101441.78
2022-09-23T06:16:59.507Z,101447.63
2022-09-23T06:19:26.169Z,101449.94
2022-09-23T06:21:53.048Z,101451.88
2022-09-23T06:24:23.758Z,101447.47
2022-09-23T06:26:52.617Z,101451.75
2022-09-23T06:29:19.354Z,101443.06
2022-09-23T06:31:45.945Z,101446.16
2022-09-23T06:34:14.446Z,101447.13
2022-09-23T06:36:45.416Z,101448.75
2022-09-23T06:39:16.201Z,101436.34
2022-09-23T06:41:45.035Z,101444.19
2022-09-23T06:44:15.726Z,101432.91
2022-09-23T06:46:43.136Z,101447.75
2022-09-23T06:49:11.072Z,101423.06
2022-09-23T06:51:37.645Z,101439.56
2022-09-23T06:54:04.648Z,101446.75
2022-09-23T06:56:36.148Z,101439.84
2022-09-23T06:59:06.352Z,101448.00
2022-09-23T07:01:33.410Z,101439.19
2022-09-23T07:04:01.743Z,101443.34
2022-09-23T07:06:28.405Z,101436.53
2022-09-23T07:08:55.052Z,101442.06
2022-09-23T07:11:22.563Z,101426.19
2022-09-23T07:13:49.786Z,101423.69
2022-09-23T07:16:16.473Z,101436.16
2022-09-23T07:18:43.229Z,101430.22
2022-09-23T07:21:15.088Z,101432.09
2022-09-23T07:23:42.914Z,101435.44
2022-09-23T07:26:10.242Z,101433.47
2022-09-23T07:28:38.327Z,101432.22
2022-09-23T07:31:10.543Z,101428.09
2022-09-23T07:33:39.803Z,101438.09
2022-09-23T07:36:13.314Z,101438.91
2022-09-23T07:38:44.423Z,101435.84
2022-09-23T07:41:15.212Z,101438.38
2022-09-23T07:43:41.802Z,101439.84
2022-09-23T07:46:16.099Z,101440.91
2022-09-23T07:48:44.358Z,101442.06
2022-09-23T07:51:16.460Z,101450.69
2022-09-23T07:53:43.275Z,101446.22
2022-09-23T07:56:10.503Z,101449.00
2022-09-23T07:58:37.018Z,101443.63
2022-09-23T08:01:05.717Z,101452.31
2022-09-23T08:03:32.567Z,101450.69
2022-09-23T08:06:10.003Z,101443.94
2022-09-23T08:08:40.725Z,101440.69
2022-09-23T08:11:10.201Z,101444.03
2022-09-23T08:13:37.270Z,101438.28
2022-09-23T08:16:04.481Z,101445.72
2022-09-23T08:18:31.300Z,101440.63
2022-09-23T08:20:59.346Z,101439.69
2022-09-23T08:23:26.139Z,101440.03
2022-09-23T08:26:03.826Z,101441.28
2022-09-23T08:28:33.771Z,101432.28
2022-09-23T08:31:00.998Z,101437.59
2022-09-23T08:33:27.957Z,101425.88
2022-09-23T08:36:00.551Z,101430.19
2022-09-23T08:38:27.658Z,101438.13
2022-09-23T08:41:05.682Z,101435.97
2022-09-23T08:43:35.963Z,101418.72
2022-09-23T08:46:05.785Z,101430.53
2022-09-23T08:48:38.593Z,101433.94
2022-09-23T08:51:08.477Z,101431.50
2022-09-23T08:53:38.314Z,101442.22
2022-09-23T08:56:20.062Z,101431.03
2022-09-23T08:58:54.433Z,101435.03
2022-09-23T09:01:28.469Z,101429.25
2022-09-23T09:04:01.505Z,101430.44
2022-09-23T09:06:52.258Z,101435.34
2022-09-23T09:09:37.083Z,101423.31
2022-09-23T09:12:12.415Z,101428.16
2022-09-23T09:15:02.571Z,101422.63
2022-09-23T09:17:33.029Z,101421.09
2022-09-23T09:20:05.919Z,101415.19
2022-09-23T09:22:38.900Z,101415.81
2022-09-23T09:25:18.638Z,101418.94
2022-09-23T09:27:46.325Z,101420.38
2022-09-23T09:30:17.178Z,101423.00
2022-09-23T09:32:52.302Z,101418.88
2022-09-23T09:35:23.231Z,101422.28
2022-09-23T09:37:49.787Z,101416.50
2022-09-23T09:40:17.558Z,101422.84
2022-09-23T09:42:49.628Z,101418.09
2022-09-23T09:45:57.808Z,101417.34
2022-09-23T09:48:45.479Z,101410.22
2022-09-23T09:51:21.794Z,101403.22
2022-09-23T09:53:51.907Z,101414.78
2022-09-23T09:56:34.377Z,101409.91
2022-09-23T09:59:08.218Z,101409.94
2022-09-23T10:01:35.650Z,101395.91
2022-09-23T10:04:20.583Z,101397.56
2022-09-23T10:07:14.309Z,101395.97
2022-09-23T10:09:49.298Z,101394.94
2022-09-23T10:12:19.245Z,101395.19
2022-09-23T10:14:51.302Z,101396.78
2022-09-23T10:17:21.503Z,101388.56
2022-09-23T10:19:58.818Z,101386.13
2022-09-23T10:22:33.485Z,101398.47
2022-09-23T10:25:07.407Z,101391.63
2022-09-23T10:27:36.702Z,101390.34
2022-09-23T10:30:30.061Z,101381.00
2022-09-23T10:32:57.213Z,101377.88
2022-09-23T10:35:26.631Z,101382.81
2022-09-23T10:37:53.857Z,101384.91
2022-09-23T10:40:48.813Z,101383.09
2022-09-23T10:44:00.196Z,101387.91
2022-09-23T10:46:39.018Z,101386.78
2022-09-23T10:49:31.063Z,101384.13
2022-09-23T10:52:22.923Z,101379.97
2022-09-23T10:55:07.150Z,101390.44
2022-09-23T10:57:46.443Z,101381.22
2022-09-23T11:00:32.092Z,101389.06
2022-09-23T11:03:34.678Z,101387.84
2022-09-23T11:06:04.207Z,101389.59
2022-09-23T11:09:08.540Z,101381.06
2022-09-23T11:11:44.250Z,101377.41
2022-09-23T11:14:38.792Z,101374.41
2022-09-23T11:17:45.915Z,101381.22
2022-09-23T11:20:23.109Z,101380.28
2022-09-23T11:23:14.317Z,101374.75
2022-09-23T11:26:25.954Z,101382.25
2022-09-23T11:29:04.233Z,101369.31
2022-09-23T11:31:40.582Z,101370.25
2022-09-23T11:34:28.700Z,101368.72
2022-09-23T11:37:07.242Z,101364.31
2022-09-23T11:39:44.038Z,101371.50
2022-09-23T11:42:19.663Z,101360.28
2022-09-23T11:44:54.040Z,101354.34
2022-09-23T11:47:39.820Z,101353.78
2022-09-23T11:50:20.039Z,101357.16
2022-09-23T11:52:59.080Z,101361.03
2022-09-23T11:55:32.836Z,101357.00
2022-09-23T11:58:12.214Z,101356.38
2022-09-23T12:00:59.337Z,101359.56
2022-09-23T12:03:48.196Z,101359.72
2022-09-23T12:06:20.384Z,101357.41
2022-09-23T12:08:53.697Z,101352.78
2022-09-23T12:11:20.271Z,101344.31
2022-09-23T12:14:07.453Z,101340.88
2022-09-23T12:16:40.368Z,101344.38
2022-09-23T12:19:34.831Z,101349.34
2022-09-23T12:22:24.798Z,101334.59
2022-09-23T12:25:04.528Z,101339.22
2022-09-23T12:27:45.956Z,101341.44
2022-09-23T12:30:17.798Z,101335.22
2022-09-23T12:32:44.973Z,101341.72
2022-09-23T12:35:25.162Z,101341.75
2022-09-23T12:37:53.247Z,101334.81
2022-09-23T12:40:32.842Z,101340.16
2022-09-23T12:43:01.200Z,101319.25
2022-09-23T12:45:32.607Z,101327.13
2022-09-23T12:48:03.117Z,101329.47
2022-09-23T12:50:50.818Z,101320.34
2022-09-23T12:53:53.458Z,101329.75
2022-09-23T12:56:26.465Z,101331.56
2022-09-23T12:59:28.587Z,101328.28
2022-09-23T13:01:56.090Z,101328.09
2022-09-23T13:04:49.740Z,101325.63
2022-09-23T13:07:21.936Z,101334.06
2022-09-23T13:09:52.334Z,101330.56
2022-09-23T13:12:28.193Z,101333.00
2022-09-23T13:15:00.589Z,101339.25
2022-09-23T13:17:33.101Z,101331.97
2022-09-23T13:20:03.698Z,101323.56
2022-09-23T13:23:04.034Z,101311.09
2022-09-23T13:25:33.654Z,101309.25
2022-09-23T13:28:12.507Z,101313.41
2022-09-23T13:30:49.162Z,101303.81
2022-09-23T13:33:24.173Z,101310.72
2022-09-23T13:35:52.529Z,101301.72
2022-09-23T13:38:19.005Z,101302.63
2022-09-23T13:40:46.995Z,101301.00
2022-09-23T13:43:40.346Z,101298.66
2022-09-23T13:46:16.193Z,101299.03
2022-09-23T13:48:45.307Z,101298.66
2022-09-23T13:51:21.992Z,101297.34
2022-09-23T13:53:58.186Z,101286.47
2022-09-23T13:56:28.547Z,101279.59
2022-09-23T13:59:23.429Z,101283.53
2022-09-23T14:01:50.040Z,101278.38
2022-09-23T14:04:26.076Z,101267.41
2022-09-23T14:06:55.745Z,101271.66
2022-09-23T14:09:27.463Z,101277.09
2022-09-23T14:11:56.603Z,101275.34
2022-09-23T14:14:23.801Z,101274.75
2022-09-23T14:16:51.756Z,101273.59
2022-09-23T14:19:21.408Z,101267.75
2022-09-23T14:21:53.377Z,101268.28
2022-09-23T14:24:29.610Z,101263.09
2022-09-23T14:27:12.657Z,101257.34
2022-09-23T14:29:42.076Z,101260.69
2022-09-23T14:32:14.400Z,101270.59
2022-09-23T14:34:42.810Z,101265.88
2022-09-23T14:37:37.713Z,101257.34
2022-09-23T14:40:11.240Z,101262.97
2022-09-23T14:42:41.212Z,101257.78
2022-09-23T14:45:13.946Z,101249.97
2022-09-23T14:47:45.803Z,101251.69
2022-09-23T14:50:36.823Z,101246.50
2022-09-23T14:53:04.882Z,101244.78
2022-09-23T14:55:31.805Z,101248.91
2022-09-23T14:58:04.735Z,101246.59
2022-09-23T15:00:31.866Z,101243.84
2022-09-23T15:03:13.032Z,101239.44
2022-09-23T15:05:46.305Z,101239.88
2022-09-23T15:08:19.196Z,101235.59
2022-09-23T15:10:46.249Z,101243.19
2022-09-23T15:13:17.684Z,101234.06
2022-09-23T15:15:44.631Z,101238.75
2022-09-23T15:18:18.742Z,101244.28
2022-09-23T15:20:54.783Z,101239.53
2022-09-23T15:23:49.169Z,101243.97
2022-09-23T15:26:19.986Z,101236.59
2022-09-23T15:28:48.319Z,101232.38
2022-09-23T15:31:16.797Z,101229.41
2022-09-23T15:33:47.869Z,101233.44
2022-09-23T15:36:19.052Z,101231.81
2022-09-23T15:38:46.686Z,101225.38
2022-09-23T15:41:14.408Z,101229.50
2022-09-23T15:43:41.828Z,101229.25
2022-09-23T15:46:22.085Z,101227.47
2022-09-23T15:48:59.024Z,101226.16
2022-09-23T15:51:27.591Z,101226.22
2022-09-23T15:53:55.462Z,101219.28
2022-09-23T15:56:22.959Z,101222.13
2022-09-23T15:58:50.426Z,101224.91
2022-09-23T16:01:31.677Z,101220.94
2022-09-23T16:04:01.244Z,101215.31
2022-09-23T16:06:28.114Z,101224.00
2022-09-23T16:08:55.324Z,101222.97
2022-09-23T16:11:32.767Z,101220.97
2022-09-23T16:14:00.842Z,101218.25
2022-09-23T16:16:28.043Z,101215.69
2022-09-23T16:18:55.321Z,101213.13
2022-09-23T16:21:28.161Z,101202.81
2022-09-23T16:23:57.267Z,101212.72
2022-09-23T16:26:30.352Z,101202.00
2022-09-23T16:28:58.406Z,101206.31
2022-09-23T16:31:26.842Z,101210.22
2022-09-23T16:33:53.696Z,101209.84
2022-09-23T16:36:31.026Z,101202.50
2022-09-23T16:39:02.872Z,101202.13
2022-09-23T16:41:34.455Z,101199.34
2022-09-23T16:44:04.516Z,101197.13
2022-09-23T16:46:31.702Z,101208.31
2022-09-23T16:49:00.389Z,101195.38
2022-09-23T16:51:30.606Z,101211.41
2022-09-23T16:53:59.503Z,101198.28
2022-09-23T16:56:29.097Z,101200.91
2022-09-23T16:58:56.875Z,101196.53
2022-09-23T17:01:44.784Z,101202.38
2022-09-23T17:04:12.760Z,101206.94
2022-09-23T17:06:50.146Z,101206.53
2022-09-23T17:09:20.219Z,101206.59
2022-09-23T17:11:53.089Z,101204.19
2022-09-23T17:14:20.444Z,101201.19
2022-09-23T17:16:47.434Z,101204.81
2022-09-23T17:19:14.117Z,101211.75
2022-09-23T17:21:40.917Z,101206.91
2022-09-23T17:24:07.578Z,101206.91
2022-09-23T17:26:34.494Z,101205.09
2022-09-23T17:29:02.283Z,101219.91
2022-09-23T17:31:30.563Z,101202.50
2022-09-23T17:33:57.592Z,101220.19
2022-09-23T17:36:24.559Z,101224.84
2022-09-23T17:38:54.205Z,101210.53
2022-09-23T17:41:21.862Z,101214.97
2022-09-23T17:43:55.469Z,101230.00
2022-09-23T17:46:23.298Z,101208.38
2022-09-23T17:48:53.126Z,101218.53
2022-09-23T17:51:19.939Z,101221.34
2022-09-23T17:53:48.305Z,101228.72
2022-09-23T17:56:15.264Z,101225.69
2022-09-23T17:58:43.529Z,101229.78
2022-09-23T18:01:12.555Z,101229.44
2022-09-23T18:03:43.389Z,101230.09
2022-09-23T18:06:12.988Z,101234.31
2022-09-23T18:08:42.047Z,101236.22
2022-09-23T18:11:15.271Z,101236.84
2022-09-23T18:13:42.438Z,101234.81
2022-09-23T18:16:09.421Z,101236.06
2022-09-23T18:18:36.472Z,101216.16
2022-09-23T18:21:04.794Z,101222.25
2022-09-23T18:23:32.609Z,101223.66
2022-09-23T18:25:59.679Z,101227.97
2022-09-23T18:28:32.666Z,101225.72
2022-09-23T18:31:01.633Z,101224.72
2022-09-23T18:33:31.125Z,101225.31
2022-09-23T18:36:03.467Z,101225.31
2022-09-23T18:38:33.704Z,101215.19
2022-09-23T18:41:01.469Z,101209.34
2022-09-23T18:43:37.555Z,101219.88
2022-09-23T18:46:14.603Z,101204.88
2022-09-23T18:49:01.973Z,101224.09
2022-09-23T18:51:30.335Z,101224.72
2022-09-23T18:53:59.405Z,101219.88
2022-09-23T18:56:29.650Z,101220.25
2022-09-23T18:58:57.193Z,101220.47
2022-09-23T19:01:24.344Z,101221.47
2022-09-23T19:03:56.195Z,101212.34
2022-09-23T19:06:24.101Z,101210.94
2022-09-23T19:08:53.096Z,101226.53
2022-09-23T19:11:21.165Z,101229.56
2022-09-23T19:13:56.421Z,101227.34
2022-09-23T19:16:26.303Z,101226.72
2022-09-23T19:18:53.825Z,101220.03
2022-09-23T19:21:22.579Z,101216.81
2022-09-23T19:24:08.184Z,101223.88
2022-09-23T19:26:39.076Z,101227.56
2022-09-23T19:29:08.313Z,101219.84
2022-09-23T19:31:43.409Z,101216.00
2022-09-23T19:34:16.225Z,101217.00
2022-09-23T19:36:45.567Z,101224.50
2022-09-23T19:39:22.696Z,101223.09
2022-09-23T19:41:50.460Z,101221.47
2022-09-23T19:44:17.550Z,101212.16
2022-09-23T19:46:51.686Z,101216.19
2022-09-23T19:49:21.675Z,101219.03
2022-09-23T19:51:48.521Z,101210.94
2022-09-23T19:54:21.662Z,101219.63
2022-09-23T19:56:49.671Z,101217.19
2022-09-23T19:59:19.172Z,101215.78
2022-09-23T20:01:48.072Z,101208.28
2022-09-23T20:04:15.830Z,101208.50
2022-09-23T20:06:43.181Z,101203.44
2022-09-23T20:09:10.434Z,101206.88
2022-09-23T20:11:37.751Z,101204.88
2022-09-23T20:14:06.252Z,101209.09
2022-09-23T20:16:35.770Z,101204.03
2022-09-23T20:19:04.312Z,101214.97
2022-09-23T20:21:31.645Z,101203.03
2022-09-23T20:23:58.604Z,101203.63
2022-09-23T20:26:43.992Z,101203.63
2022-09-23T20:29:11.467Z,101199.56
2022-09-23T20:31:40.249Z,101194.69
2022-09-23T20:34:08.199Z,101189.84
2022-09-23T20:36:36.240Z,101181.53
2022-09-23T20:39:09.631Z,101186.22
2022-09-23T20:41:38.995Z,101189.81
2022-09-23T20:44:09.753Z,101181.34
2022-09-23T20:46:36.809Z,101190.44
2022-09-23T20:49:04.654Z,101180.94
2022-09-23T20:51:33.406Z,101178.91
2022-09-23T20:54:01.250Z,101171.59
2022-09-23T20:56:29.040Z,101185.75
2022-09-23T20:59:00.511Z,101175.59
2022-09-23T21:01:27.824Z,101184.53
2022-09-23T21:03:55.943Z,101178.84
2022-09-23T21:06:26.156Z,101179.06
2022-09-23T21:08:54.656Z,101171.16
2022-09-23T21:11:22.033Z,101188.16
2022-09-23T21:13:53.868Z,101187.16
2022-09-23T21:16:25.280Z,101184.91
2022-09-23T21:18:52.812Z,101187.31
2022-09-23T21:21:21.961Z,101176.19
2022-09-23T21:23:49.567Z,101183.88
2022-09-23T21:26:26.541Z,101179.84
2022-09-23T21:28:57.635Z,101180.97
2022-09-23T21:31:33.836Z,101186.91
2022-09-23T21:34:06.422Z,101180.97
2022-09-23T21:36:38.247Z,101182.03
2022-09-23T21:39:06.783Z,101185.28
2022-09-23T21:41:34.068Z,101180.22
2022-09-23T21:44:04.413Z,101179.38
2022-09-23T21:46:33.799Z,101179.34
2022-09-23T21:49:03.300Z,101183.19
2022-09-23T21:51:41.120Z,101177.31
2022-09-23T21:54:13.599Z,101178.34
2022-09-23T21:56:40.416Z,101186.84
2022-09-23T21:59:08.111Z,101187.63
2022-09-23T22:01:38.048Z,101188.25
2022-09-23T22:04:14.689Z,101191.06
2022-09-23T22:06:41.743Z,101180.72
2022-09-23T22:09:12.150Z,101182.97
2022-09-23T22:11:58.365Z,101177.91
2022-09-23T22:14:26.207Z,101165.94
2022-09-23T22:16:57.878Z,101173.81
2022-09-23T22:19:27.067Z,101170.59
2022-09-23T22:21:55.956Z,101170.59
2022-09-23T22:24:23.130Z,101166.72
2022-09-23T22:26:49.894Z,101159.22
2022-09-23T22:29:35.249Z,101159.63
2022-09-23T22:32:22.698Z,101168.97
2022-09-23T22:34:52.079Z,101163.72
2022-09-23T22:37:25.480Z,101164.88
2022-09-23T22:39:52.122Z,101168.97
2022-09-23T22:42:21.464Z,101154.72
2022-09-23T22:44:48.728Z,101151.50
2022-09-23T22:47:20.527Z,101164.66
2022-09-23T22:49:47.938Z,101159.00
2022-09-23T22:52:16.170Z,101159.34
2022-09-23T22:54:43.450Z,101157.94
2022-09-23T22:57:10.318Z,101148.00
2022-09-23T22:59:39.799Z,101149.03
2022-09-23T23:02:08.194Z,101152.69
2022-09-23T23:04:37.134Z,101149.06
2022-09-23T23:07:06.021Z,101149.44
2022-09-23T23:09:32.933Z,101145.41
2022-09-23T23:12:00.065Z,101138.91
2022-09-23T23:14:28.099Z,101137.34
2022-09-23T23:16:55.182Z,101140.94
2022-09-23T23:19:22.091Z,101143.16
2022-09-23T23:21:50.477Z,101139.94
2022-09-23T23:24:21.774Z,101132.84
2022-09-23T23:26:49.560Z,101133.25
2022-09-23T23:29:18.115Z,101130.75
2022-09-23T23:31:45.545Z,101131.81
2022-09-23T23:34:16.224Z,101128.53
2022-09-23T23:36:43.752Z,101133.22
2022-09-23T23:39:12.347Z,101124.09
2022-09-23T23:41:42.508Z,101115.84
2022-09-23T23:44:09.358Z,101123.31
2022-09-23T23:46:37.424Z,101120.28
2022-09-23T23:49:04.847Z,101116.22
2022-09-23T23:51:32.171Z,101106.91
2022-09-23T23:53:59.488Z,101111.34
2022-09-23T23:56:27.583Z,101115.22
2022-09-23T23:59:03.976Z,101117.06
